Time;durP1;ratioP1;P1;durP2;ratioP2;P2;SDS_P1;SDS_P2;PMS_P1;PMS_P2;Temp;Humidity;BMP_temperature;BMP_pressure;BME280_temperature;BME280_humidity;BME280_pressure;Samples;Min_cycle;Max_cycle;Signal;HPM_P1;HPM_P2
2022/11/23 00:00:13;;;;;;;1.73;0.90;;;;;;;;;;4992860;28;20212;-38
2022/11/23 00:02:39;;;;;;;1.73;0.80;;;;;;;;;;4993962;28;20444;-38
2022/11/23 00:05:07;;;;;;;1.52;0.70;;;;;;;;;;4992013;28;20097;-38
2022/11/23 00:07:33;;;;;;;1.63;0.90;;;;;;;;;;4993768;28;20031;-38
2022/11/23 00:09:59;;;;;;;1.83;0.95;;;;;;;;;;4991716;28;20033;-39
2022/11/23 00:12:25;;;;;;;2.45;1.35;;;;;;;;;;4993356;28;20057;-38
2022/11/23 00:14:51;;;;;;;2.28;0.80;;;;;;;;;;4993184;28;20081;-42
2022/11/23 00:17:17;;;;;;;1.80;0.90;;;;;;;;;;4993005;28;20035;-38
2022/11/23 00:19:43;;;;;;;2.28;1.00;;;;;;;;;;4994092;28;20027;-38
2022/11/23 00:22:09;;;;;;;5.30;1.05;;;;;;;;;;4992607;28;20034;-38
2022/11/23 00:24:35;;;;;;;1.77;0.68;;;;;;;;;;4993459;28;20014;-38
2022/11/23 00:27:01;;;;;;;2.20;1.25;;;;;;;;;;4987789;28;20094;-38
2022/11/23 00:29:27;;;;;;;2.08;0.90;;;;;;;;;;4982325;28;20472;-38
2022/11/23 00:31:53;;;;;;;1.38;0.70;;;;;;;;;;4990744;28;20038;-43
2022/11/23 00:34:18;;;;;;;3.17;1.50;;;;;;;;;;4993738;28;20030;-38
2022/11/23 00:36:44;;;;;;;1.02;0.77;;;;;;;;;;4993110;28;20117;-38
2022/11/23 00:39:10;;;;;;;1.33;0.77;;;;;;;;;;4992957;28;20098;-38
2022/11/23 01:10:11;;;;;;;1.88;0.80;;;;;;;;;;4991255;28;20086;-39
2022/11/23 01:12:37;;;;;;;1.40;0.80;;;;;;;;;;4993076;28;20026;-38
2022/11/23 01:15:03;;;;;;;1.45;0.90;;;;;;;;;;4991138;28;20037;-38
2022/11/23 01:17:29;;;;;;;1.73;0.82;;;;;;;;;;4987813;28;20034;-38
2022/11/23 01:19:55;;;;;;;1.52;0.93;;;;;;;;;;4991697;28;20034;-43
2022/11/23 01:22:21;;;;;;;1.40;0.90;;;;;;;;;;4992917;28;20027;-38
2022/11/23 01:24:49;;;;;;;2.47;0.70;;;;;;;;;;4992556;28;20034;-38
2022/11/23 01:27:40;;;;;;;0.90;0.60;;;;;;;;;;4992643;28;20049;-38
2022/11/23 01:30:06;;;;;;;3.05;0.85;;;;;;;;;;4991630;28;20026;-38
2022/11/23 01:32:32;;;;;;;0.70;0.60;;;;;;;;;;4992390;28;20023;-38
2022/11/23 01:34:58;;;;;;;3.42;1.52;;;;;;;;;;4981566;28;20031;-38
2022/11/23 01:37:24;;;;;;;1.98;0.88;;;;;;;;;;4991921;28;20041;-38
2022/11/23 01:39:50;;;;;;;1.23;0.60;;;;;;;;;;4991883;28;20022;-42
2022/11/23 01:42:16;;;;;;;1.10;0.70;;;;;;;;;;4991027;28;20424;-38
2022/11/23 01:44:42;;;;;;;1.63;0.88;;;;;;;;;;4992139;28;20030;-38
2022/11/23 01:47:08;;;;;;;2.55;0.88;;;;;;;;;;4990557;28;20035;-38
2022/11/23 01:49:45;;;;;;;3.55;0.90;;;;;;;;;;4992328;28;20486;-38
2022/11/23 01:52:14;;;;;;;2.28;0.70;;;;;;;;;;4990688;28;20097;-38
2022/11/23 01:54:48;;;;;;;1.23;0.80;;;;;;;;;;4992015;28;20054;-38
2022/11/23 01:57:18;;;;;;;2.10;0.70;;;;;;;;;;4990858;28;20088;-38
2022/11/23 01:59:46;;;;;;;1.65;0.80;;;;;;;;;;4991931;28;20031;-39
2022/11/23 02:02:13;;;;;;;1.10;0.60;;;;;;;;;;4990700;28;20033;-38
2022/11/23 02:04:41;;;;;;;2.58;0.75;;;;;;;;;;4991831;28;20058;-39
2022/11/23 02:07:08;;;;;;;2.28;1.25;;;;;;;;;;4990492;28;20027;-38
2022/11/23 02:09:34;;;;;;;0.93;0.60;;;;;;;;;;4992255;28;20475;-38
2022/11/23 02:12:00;;;;;;;1.38;0.60;;;;;;;;;;4989966;28;20069;-38
2022/11/23 02:14:27;;;;;;;1.20;0.63;;;;;;;;;;4990801;28;20062;-38
2022/11/23 02:16:53;;;;;;;1.52;0.60;;;;;;;;;;4991115;28;20077;-43
2022/11/23 02:19:31;;;;;;;1.00;0.60;;;;;;;;;;4991969;28;20022;-38
2022/11/23 02:21:57;;;;;;;1.30;0.70;;;;;;;;;;4986463;28;20032;-38
2022/11/23 02:24:26;;;;;;;1.70;0.60;;;;;;;;;;4991979;28;20427;-38
2022/11/23 02:26:53;;;;;;;1.00;0.60;;;;;;;;;;4990818;28;20038;-42
2022/11/23 02:29:24;;;;;;;2.22;0.93;;;;;;;;;;4991571;28;20026;-38
2022/11/23 02:31:50;;;;;;;1.55;0.85;;;;;;;;;;4991209;28;20025;-44
2022/11/23 02:34:16;;;;;;;1.83;0.70;;;;;;;;;;4994716;28;20420;-38
2022/11/23 02:36:50;;;;;;;1.15;0.60;;;;;;;;;;4994994;28;20036;-38
2022/11/23 02:39:18;;;;;;;1.13;0.52;;;;;;;;;;4995068;28;20022;-38
2022/11/23 02:41:47;;;;;;;0.90;0.60;;;;;;;;;;4988052;28;20456;-38
2022/11/23 02:44:33;;;;;;;1.15;0.60;;;;;;;;;;4985569;28;20014;-38
2022/11/23 02:46:59;;;;;;;1.13;0.50;;;;;;;;;;4983251;28;20085;-38
2022/11/23 02:49:25;;;;;;;3.05;0.82;;;;;;;;;;4982131;28;20037;-38
2022/11/23 02:51:51;;;;;;;2.55;0.98;;;;;;;;;;4987181;28;20476;-43
2022/11/23 02:54:17;;;;;;;1.20;0.65;;;;;;;;;;4982619;28;20037;-38
2022/11/23 02:56:43;;;;;;;1.42;0.65;;;;;;;;;;4982114;28;20027;-38
2022/11/23 02:59:09;;;;;;;2.20;0.70;;;;;;;;;;4982029;28;20030;-38
2022/11/23 03:01:35;;;;;;;1.02;0.50;;;;;;;;;;4980689;28;20023;-38
2022/11/23 03:04:01;;;;;;;1.33;0.60;;;;;;;;;;4984557;28;20072;-39
2022/11/23 03:06:27;;;;;;;1.23;0.65;;;;;;;;;;4990217;28;20015;-38
2022/11/23 03:08:53;;;;;;;1.45;0.77;;;;;;;;;;4979889;28;20030;-43
2022/11/23 03:11:19;;;;;;;2.50;0.82;;;;;;;;;;4981079;28;20059;-38
2022/11/23 03:13:45;;;;;;;1.27;0.70;;;;;;;;;;4982723;28;20054;-38
2022/11/23 03:16:11;;;;;;;1.10;0.57;;;;;;;;;;4979514;28;20022;-38
2022/11/23 03:18:37;;;;;;;1.30;0.90;;;;;;;;;;4984931;28;20482;-38
2022/11/23 03:21:04;;;;;;;1.38;0.52;;;;;;;;;;4982185;28;20114;-38
2022/11/23 03:23:31;;;;;;;1.58;0.65;;;;;;;;;;4982906;28;20502;-39
2022/11/23 03:25:57;;;;;;;2.08;0.70;;;;;;;;;;4985102;28;20431;-38
2022/11/23 03:28:23;;;;;;;1.42;0.77;;;;;;;;;;4982796;28;20084;-40
2022/11/23 03:30:49;;;;;;;1.80;0.77;;;;;;;;;;4993972;28;20463;-38
2022/11/23 03:33:16;;;;;;;1.42;0.90;;;;;;;;;;4988936;28;20037;-38
2022/11/23 03:35:42;;;;;;;1.27;0.80;;;;;;;;;;4993867;28;20081;-38
2022/11/23 03:38:08;;;;;;;1.95;0.80;;;;;;;;;;4993152;28;20057;-38
2022/11/23 03:40:34;;;;;;;1.20;0.50;;;;;;;;;;4993337;28;20018;-38
2022/11/23 03:43:00;;;;;;;2.08;0.60;;;;;;;;;;4993413;28;20034;-38
2022/11/23 03:45:26;;;;;;;1.98;0.60;;;;;;;;;;4992693;28;20022;-38
2022/11/23 03:47:52;;;;;;;2.50;0.82;;;;;;;;;;4993476;28;20484;-43
2022/11/23 03:50:18;;;;;;;1.88;0.73;;;;;;;;;;4993214;28;20022;-38
2022/11/23 03:52:44;;;;;;;2.90;0.57;;;;;;;;;;4993768;28;20050;-38
2022/11/23 03:55:09;;;;;;;1.17;0.60;;;;;;;;;;4992887;28;20934;-38
2022/11/23 03:57:36;;;;;;;2.25;0.90;;;;;;;;;;4993730;28;20070;-38
2022/11/23 04:00:02;;;;;;;2.30;0.68;;;;;;;;;;4992561;28;20026;-38
2022/11/23 04:02:28;;;;;;;1.50;0.70;;;;;;;;;;4993455;28;20474;-38
2022/11/23 04:04:54;;;;;;;2.03;1.02;;;;;;;;;;4992588;28;20157;-43
2022/11/23 04:07:20;;;;;;;1.50;0.73;;;;;;;;;;4993338;28;20038;-39
2022/11/23 04:09:46;;;;;;;1.20;0.60;;;;;;;;;;4992746;28;20098;-38
2022/11/23 04:12:12;;;;;;;1.90;0.82;;;;;;;;;;4991857;28;20046;-41
2022/11/23 04:14:38;;;;;;;0.90;0.50;;;;;;;;;;4982471;28;20030;-38
2022/11/23 04:17:04;;;;;;;1.40;0.70;;;;;;;;;;4992122;28;20018;-38
2022/11/23 04:19:30;;;;;;;2.05;0.63;;;;;;;;;;4993632;28;20518;-38
2022/11/23 04:21:56;;;;;;;1.83;0.95;;;;;;;;;;4991871;28;20026;-38
2022/11/23 04:24:22;;;;;;;2.80;0.70;;;;;;;;;;4993188;28;20031;-38
2022/11/23 04:26:48;;;;;;;1.48;0.68;;;;;;;;;;4992786;28;20467;-38
2022/11/23 04:29:13;;;;;;;1.77;0.70;;;;;;;;;;4992873;28;20023;-38
2022/11/23 04:31:39;;;;;;;2.08;0.65;;;;;;;;;;4975384;28;20034;-38
2022/11/23 04:34:06;;;;;;;1.90;0.90;;;;;;;;;;4992245;28;20356;-38
2022/11/23 04:36:32;;;;;;;1.10;0.60;;;;;;;;;;4993043;28;20109;-38
2022/11/23 04:38:58;;;;;;;1.42;0.60;;;;;;;;;;4992031;28;20034;-38
2022/11/23 04:41:24;;;;;;;1.88;0.70;;;;;;;;;;4992610;28;20061;-38
2022/11/23 04:43:50;;;;;;;2.55;0.80;;;;;;;;;;4992267;28;20029;-43
2022/11/23 04:46:16;;;;;;;1.92;0.80;;;;;;;;;;4991918;28;20092;-38
2022/11/23 04:48:42;;;;;;;2.08;0.85;;;;;;;;;;4988800;28;20391;-38
2022/11/23 04:51:09;;;;;;;1.52;0.47;;;;;;;;;;4990014;28;20034;-38
2022/11/23 04:53:35;;;;;;;1.73;0.93;;;;;;;;;;4993031;28;20023;-38
2022/11/23 04:56:01;;;;;;;1.08;0.55;;;;;;;;;;4991601;28;20026;-38
2022/11/23 04:58:27;;;;;;;1.40;1.00;;;;;;;;;;4993322;28;20041;-38
2022/11/23 05:00:53;;;;;;;1.02;0.63;;;;;;;;;;4991917;28;20468;-44
2022/11/23 05:03:19;;;;;;;1.50;0.70;;;;;;;;;;4992942;28;20034;-38
2022/11/23 05:05:45;;;;;;;1.95;1.00;;;;;;;;;;4985578;28;20019;-38
2022/11/23 05:08:11;;;;;;;1.30;0.70;;;;;;;;;;4981555;28;20615;-38
2022/11/23 05:10:37;;;;;;;0.90;0.70;;;;;;;;;;4992129;28;20057;-38
2022/11/23 05:13:03;;;;;;;1.10;0.60;;;;;;;;;;4991452;28;20033;-38
2022/11/23 05:15:29;;;;;;;1.00;0.50;;;;;;;;;;4991577;28;20026;-38
2022/11/23 05:18:00;;;;;;;1.27;0.60;;;;;;;;;;4992000;28;20058;-39
2022/11/23 05:20:26;;;;;;;2.05;0.60;;;;;;;;;;4992445;28;20037;-38
2022/11/23 05:22:52;;;;;;;1.20;0.70;;;;;;;;;;4987863;28;20435;-42
2022/11/23 05:25:19;;;;;;;1.40;0.90;;;;;;;;;;4991378;28;20022;-38
2022/11/23 05:27:45;;;;;;;1.80;0.75;;;;;;;;;;4992167;28;20042;-40
2022/11/23 05:30:11;;;;;;;1.42;0.80;;;;;;;;;;4991048;28;20102;-38
2022/11/23 05:32:37;;;;;;;1.42;0.77;;;;;;;;;;4992498;28;20073;-38
2022/11/23 05:35:03;;;;;;;0.70;0.60;;;;;;;;;;4990881;28;20034;-38
2022/11/23 05:37:29;;;;;;;2.03;0.90;;;;;;;;;;4992235;28;20030;-38
2022/11/23 05:39:55;;;;;;;1.08;0.65;;;;;;;;;;4990387;28;20382;-43
2022/11/23 05:42:21;;;;;;;0.65;0.50;;;;;;;;;;4992138;28;20034;-38
2022/11/23 05:44:47;;;;;;;1.50;0.77;;;;;;;;;;4991764;28;20105;-38
2022/11/23 05:47:13;;;;;;;1.35;0.57;;;;;;;;;;4990999;28;20510;-38
2022/11/23 05:49:39;;;;;;;2.00;0.90;;;;;;;;;;4991676;28;20081;-38
2022/11/23 05:52:05;;;;;;;1.10;0.60;;;;;;;;;;4990795;28;20019;-38
2022/11/23 05:54:31;;;;;;;2.10;0.80;;;;;;;;;;4991780;28;20050;-38
2022/11/23 05:56:57;;;;;;;1.70;1.05;;;;;;;;;;4991210;28;20065;-38
2022/11/23 05:59:22;;;;;;;2.42;0.90;;;;;;;;;;4991921;28;20023;-38
2022/11/23 06:01:48;;;;;;;1.63;0.70;;;;;;;;;;4991571;28;20379;-38
2022/11/23 06:04:14;;;;;;;1.25;0.50;;;;;;;;;;4990752;28;20030;-38
2022/11/23 06:06:40;;;;;;;1.27;0.73;;;;;;;;;;4991379;28;20023;-38
2022/11/23 06:09:06;;;;;;;1.77;0.80;;;;;;;;;;4994727;28;20034;-38
2022/11/23 06:11:34;;;;;;;2.97;1.15;;;;;;;;;;4991878;28;20047;-38
2022/11/23 06:14:00;;;;;;;1.08;0.85;;;;;;;;;;4994555;28;20034;-39
2022/11/23 06:16:26;;;;;;;5.03;1.63;;;;;;;;;;4991133;28;20114;-38
2022/11/23 06:18:52;;;;;;;1.52;0.90;;;;;;;;;;4994973;28;20034;-41
2022/11/23 06:21:18;;;;;;;1.90;0.85;;;;;;;;;;4995386;28;20031;-37
2022/11/23 06:23:46;;;;;;;1.13;0.65;;;;;;;;;;4992816;28;20030;-37
2022/11/23 06:26:12;;;;;;;2.03;0.95;;;;;;;;;;4994866;28;20019;-37
2022/11/23 06:28:38;;;;;;;1.17;0.75;;;;;;;;;;4995837;28;20157;-37
2022/11/23 06:31:05;;;;;;;1.23;0.70;;;;;;;;;;4994735;28;20023;-37
2022/11/23 06:33:31;;;;;;;1.38;0.73;;;;;;;;;;4991308;28;20033;-37
2022/11/23 06:35:59;;;;;;;3.17;0.60;;;;;;;;;;4986566;28;20050;-37
2022/11/23 06:38:25;;;;;;;2.28;0.95;;;;;;;;;;4995749;28;20027;-37
2022/11/23 06:40:51;;;;;;;4.30;0.75;;;;;;;;;;4990546;28;20076;-40
2022/11/23 06:43:17;;;;;;;3.85;0.60;;;;;;;;;;4995056;28;20030;-38
2022/11/23 06:45:43;;;;;;;1.48;0.88;;;;;;;;;;4994811;28;20026;-37
2022/11/23 06:48:10;;;;;;;1.85;1.02;;;;;;;;;;4994822;28;20045;-37
2022/11/23 06:50:36;;;;;;;2.20;0.93;;;;;;;;;;4995214;28;20384;-37
2022/11/23 06:53:02;;;;;;;3.55;0.93;;;;;;;;;;4981852;28;20030;-37
2022/11/23 06:55:28;;;;;;;3.20;0.93;;;;;;;;;;4994459;28;20105;-41
2022/11/23 06:57:55;;;;;;;3.20;0.95;;;;;;;;;;4990793;28;20109;-42
2022/11/23 07:00:21;;;;;;;2.03;1.05;;;;;;;;;;4994712;28;20041;-37
2022/11/23 07:02:51;;;;;;;4.85;1.10;;;;;;;;;;4991945;28;20026;-37
2022/11/23 07:05:17;;;;;;;4.43;1.10;;;;;;;;;;4985923;28;20037;-39
2022/11/23 07:07:43;;;;;;;2.22;1.13;;;;;;;;;;4994514;28;20054;-38
2022/11/23 07:10:10;;;;;;;2.70;0.85;;;;;;;;;;4985280;28;20529;-38
2022/11/23 07:12:36;;;;;;;5.70;1.35;;;;;;;;;;4994343;28;20034;-39
2022/11/23 07:15:01;;;;;;;2.78;1.45;;;;;;;;;;4993203;28;20471;-38
2022/11/23 07:17:27;;;;;;;4.60;1.77;;;;;;;;;;4994163;28;20112;-38
2022/11/23 07:19:53;;;;;;;1.42;0.90;;;;;;;;;;4993728;28;20038;-43
2022/11/23 07:22:19;;;;;;;5.85;1.50;;;;;;;;;;4994330;28;20375;-39
2022/11/23 07:24:45;;;;;;;2.78;1.38;;;;;;;;;;4993817;28;20037;-37
2022/11/23 07:27:11;;;;;;;2.25;0.77;;;;;;;;;;4992870;28;20053;-38
2022/11/23 07:29:37;;;;;;;1.55;0.80;;;;;;;;;;4994357;28;20022;-38
2022/11/23 07:32:03;;;;;;;2.35;1.10;;;;;;;;;;4992610;28;20093;-38
2022/11/23 07:34:29;;;;;;;1.88;1.00;;;;;;;;;;4995104;28;20475;-37
2022/11/23 07:36:55;;;;;;;2.65;0.98;;;;;;;;;;4993672;28;20138;-38
2022/11/23 07:39:21;;;;;;;1.55;1.00;;;;;;;;;;4994169;28;20109;-38
2022/11/23 07:41:50;;;;;;;3.15;1.25;;;;;;;;;;4993896;28;20023;-37
2022/11/23 07:44:16;;;;;;;3.17;1.00;;;;;;;;;;4986250;28;20081;-38
2022/11/23 07:46:42;;;;;;;2.92;1.20;;;;;;;;;;4993563;28;20038;-38
2022/11/23 07:49:08;;;;;;;4.18;1.40;;;;;;;;;;4993263;28;20535;-38
2022/11/23 07:51:34;;;;;;;1.25;0.88;;;;;;;;;;4993515;28;20034;-38
2022/11/23 07:54:00;;;;;;;1.88;1.00;;;;;;;;;;4991739;28;20018;-40
2022/11/23 07:56:26;;;;;;;2.50;1.15;;;;;;;;;;4993576;28;20022;-38
2022/11/23 07:58:52;;;;;;;1.80;0.98;;;;;;;;;;4992777;28;20475;-42
2022/11/23 08:01:19;;;;;;;3.03;1.20;;;;;;;;;;4988536;28;20045;-37
2022/11/23 08:03:45;;;;;;;3.13;1.08;;;;;;;;;;4993859;28;20042;-37
2022/11/23 08:06:12;;;;;;;2.80;1.23;;;;;;;;;;4991728;28;20045;-37
2022/11/23 08:08:39;;;;;;;2.60;0.93;;;;;;;;;;4992844;28;20046;-38
2022/11/23 08:11:05;;;;;;;2.30;1.17;;;;;;;;;;4992423;28;20042;-37
2022/11/23 08:13:33;;;;;;;3.45;1.10;;;;;;;;;;4994146;28;20037;-37
2022/11/23 08:15:59;;;;;;;2.25;0.95;;;;;;;;;;4991891;28;20026;-37
2022/11/23 08:18:26;;;;;;;2.85;1.27;;;;;;;;;;4989084;28;20090;-38
2022/11/23 08:20:52;;;;;;;2.15;1.08;;;;;;;;;;4987165;28;20034;-42
2022/11/23 08:23:18;;;;;;;4.32;1.20;;;;;;;;;;4992863;28;20014;-37
2022/11/23 08:25:44;;;;;;;1.95;1.10;;;;;;;;;;4992692;28;20365;-37
2022/11/23 08:28:10;;;;;;;4.18;0.98;;;;;;;;;;4992064;28;20034;-38
2022/11/23 08:30:36;;;;;;;3.08;1.17;;;;;;;;;;4992014;28;20443;-38
2022/11/23 08:33:03;;;;;;;1.85;0.95;;;;;;;;;;4988266;28;20058;-37
2022/11/23 08:35:29;;;;;;;4.57;1.95;;;;;;;;;;4990742;28;20026;-37
2022/11/23 08:37:55;;;;;;;6.68;1.30;;;;;;;;;;4990119;28;20069;-38
2022/11/23 08:40:21;;;;;;;2.13;1.40;;;;;;;;;;4989721;28;20030;-37
2022/11/23 08:42:47;;;;;;;7.13;1.42;;;;;;;;;;4982824;28;20019;-37
2022/11/23 08:45:13;;;;;;;3.90;1.13;;;;;;;;;;4990134;28;20042;-37
2022/11/23 08:47:39;;;;;;;2.45;1.08;;;;;;;;;;4989062;28;20092;-38
2022/11/23 08:50:05;;;;;;;2.05;1.30;;;;;;;;;;4986899;28;20426;-37
2022/11/23 08:52:31;;;;;;;3.15;0.82;;;;;;;;;;4992379;28;20173;-37
2022/11/23 08:54:57;;;;;;;3.03;1.30;;;;;;;;;;4983591;28;20030;-38
2022/11/23 08:57:23;;;;;;;5.25;1.20;;;;;;;;;;4983017;28;20033;-38
2022/11/23 08:59:49;;;;;;;3.47;0.90;;;;;;;;;;4989876;28;20026;-37
2022/11/23 09:02:15;;;;;;;1.88;1.02;;;;;;;;;;4984162;28;20072;-37
2022/11/23 09:04:42;;;;;;;3.33;1.52;;;;;;;;;;4985916;28;20069;-37
2022/11/23 09:07:08;;;;;;;2.85;1.48;;;;;;;;;;4989479;28;20120;-37
2022/11/23 09:09:34;;;;;;;1.75;1.02;;;;;;;;;;4990839;28;20030;-37
2022/11/23 09:12:00;;;;;;;3.00;1.83;;;;;;;;;;4989793;28;20053;-38
2022/11/23 09:14:26;;;;;;;2.35;1.23;;;;;;;;;;4991412;28;20138;-37
2022/11/23 09:16:52;;;;;;;2.83;1.25;;;;;;;;;;4990967;28;20443;-42
2022/11/23 09:19:18;;;;;;;2.00;1.13;;;;;;;;;;4990898;28;20026;-37
2022/11/23 09:21:44;;;;;;;3.45;2.05;;;;;;;;;;4989587;28;20037;-37
2022/11/23 09:24:11;;;;;;;3.63;1.33;;;;;;;;;;4990805;28;20063;-37
2022/11/23 09:26:38;;;;;;;3.63;1.20;;;;;;;;;;4983524;28;20034;-37
2022/11/23 09:29:05;;;;;;;3.03;1.33;;;;;;;;;;4990415;28;20097;-37
2022/11/23 09:31:31;;;;;;;2.80;1.67;;;;;;;;;;4990858;28;20498;-38
2022/11/23 09:33:57;;;;;;;3.53;1.08;;;;;;;;;;4990791;28;20041;-38
2022/11/23 09:36:23;;;;;;;9.63;1.55;;;;;;;;;;4991174;28;20015;-37
2022/11/23 09:38:49;;;;;;;2.38;1.23;;;;;;;;;;4991633;28;20034;-37
2022/11/23 09:41:21;;;;;;;2.13;1.00;;;;;;;;;;4984593;28;20026;-38
2022/11/23 09:44:02;;;;;;;5.70;1.27;;;;;;;;;;4981165;28;20546;-37
2022/11/23 09:46:33;;;;;;;1.67;1.10;;;;;;;;;;4990779;28;20027;-37
2022/11/23 09:49:07;;;;;;;2.95;1.10;;;;;;;;;;4990132;28;20487;-38
2022/11/23 09:51:35;;;;;;;2.63;1.20;;;;;;;;;;4991127;28;20030;-37
2022/11/23 09:54:10;;;;;;;3.40;1.15;;;;;;;;;;4990288;28;20030;-38
2022/11/23 09:56:37;;;;;;;1.75;1.33;;;;;;;;;;4987848;28;20064;-39
2022/11/23 09:59:20;;;;;;;1.55;1.02;;;;;;;;;;4990620;28;20026;-37
2022/11/23 10:01:46;;;;;;;3.17;1.23;;;;;;;;;;4988312;28;20488;-37
2022/11/23 10:04:17;;;;;;;2.00;1.20;;;;;;;;;;4989585;28;20058;-38
2022/11/23 10:06:43;;;;;;;2.97;1.00;;;;;;;;;;4986086;28;20033;-37
2022/11/23 10:09:12;;;;;;;4.53;1.30;;;;;;;;;;4987884;28;20037;-38
2022/11/23 10:11:57;;;;;;;2.88;1.40;;;;;;;;;;4979469;28;20073;-37
2022/11/23 10:14:26;;;;;;;3.25;0.90;;;;;;;;;;4982773;28;20042;-37
2022/11/23 10:16:51;;;;;;;1.73;0.88;;;;;;;;;;4986664;28;20033;-42
2022/11/23 10:19:20;;;;;;;1.00;0.70;;;;;;;;;;4991063;28;20026;-37
2022/11/23 10:21:46;;;;;;;2.90;1.10;;;;;;;;;;4985599;28;20110;-37
2022/11/23 10:24:20;;;;;;;2.80;0.80;;;;;;;;;;4987417;28;20118;-37
2022/11/23 10:26:48;;;;;;;1.58;1.23;;;;;;;;;;4980379;28;20030;-37
2022/11/23 10:29:30;;;;;;;3.15;1.05;;;;;;;;;;4990200;28;20133;-37
2022/11/23 10:31:56;;;;;;;1.73;1.00;;;;;;;;;;4981206;28;20034;-38
2022/11/23 10:34:43;;;;;;;2.22;1.10;;;;;;;;;;4986827;28;20030;-37
2022/11/23 10:37:13;;;;;;;2.22;0.93;;;;;;;;;;4976374;28;20522;-37
2022/11/23 10:39:39;;;;;;;1.77;0.82;;;;;;;;;;4986761;28;20026;-37
2022/11/23 10:42:14;;;;;;;2.45;1.30;;;;;;;;;;4985246;28;20038;-37
2022/11/23 10:44:41;;;;;;;1.98;0.80;;;;;;;;;;4985789;28;20061;-38
2022/11/23 10:47:08;;;;;;;3.20;1.20;;;;;;;;;;4983119;28;20506;-37
2022/11/23 10:49:35;;;;;;;2.47;1.13;;;;;;;;;;4987567;28;20475;-37
2022/11/23 10:52:23;;;;;;;2.47;1.05;;;;;;;;;;4987030;28;20073;-37
2022/11/23 10:54:52;;;;;;;2.88;1.27;;;;;;;;;;4987946;28;20034;-38
2022/11/23 10:57:27;;;;;;;1.85;0.77;;;;;;;;;;4989452;28;20053;-37
2022/11/23 11:00:09;;;;;;;2.78;0.90;;;;;;;;;;4992888;28;20546;-41
2022/11/23 11:02:48;;;;;;;1.97;0.87;;;;;;;;;;4990650;28;20383;-38
2022/11/23 11:05:29;;;;;;;1.33;0.90;;;;;;;;;;4992777;28;20898;-37
2022/11/23 11:07:55;;;;;;;1.77;1.02;;;;;;;;;;4988233;28;20042;-40
2022/11/23 11:10:38;;;;;;;4.03;1.00;;;;;;;;;;4991972;28;20030;-38
2022/11/23 11:13:21;;;;;;;2.97;1.02;;;;;;;;;;4985226;28;20110;-40
2022/11/23 11:15:54;;;;;;;1.88;1.02;;;;;;;;;;4992096;28;20376;-37
2022/11/23 11:18:21;;;;;;;2.58;0.90;;;;;;;;;;4993359;28;20022;-37
2022/11/23 11:20:47;;;;;;;2.75;0.93;;;;;;;;;;4988049;28;20467;-37
2022/11/23 11:23:17;;;;;;;5.93;1.60;;;;;;;;;;4989633;28;20251;-38
2022/11/23 11:25:44;;;;;;;7.60;2.22;;;;;;;;;;4987506;28;20029;-37
2022/11/23 11:28:24;;;;;;;10.85;2.65;;;;;;;;;;4989137;28;20109;-37
2022/11/23 11:31:09;;;;;;;12.50;3.92;;;;;;;;;;4988210;28;20039;-41
2022/11/23 11:33:46;;;;;;;26.20;4.78;;;;;;;;;;4992011;28;20062;-37
2022/11/23 11:36:13;;;;;;;18.25;3.90;;;;;;;;;;4986119;28;20035;-40
2022/11/23 11:38:41;;;;;;;12.80;3.80;;;;;;;;;;4990154;28;20030;-38
2022/11/23 11:41:08;;;;;;;12.18;3.03;;;;;;;;;;4985607;28;20033;-37
2022/11/23 11:43:36;;;;;;;12.25;4.25;;;;;;;;;;4989663;28;20049;-38
2022/11/23 11:46:05;;;;;;;11.43;4.82;;;;;;;;;;4969161;28;20042;-38
2022/11/23 11:48:39;;;;;;;7.75;3.15;;;;;;;;;;4983730;28;20061;-38
2022/11/23 11:51:13;;;;;;;14.25;4.28;;;;;;;;;;4991259;28;20037;-37
2022/11/23 11:53:41;;;;;;;16.00;3.58;;;;;;;;;;4990118;28;20376;-38
2022/11/23 11:56:26;;;;;;;13.25;3.42;;;;;;;;;;4992524;28;20107;-37
2022/11/23 11:58:57;;;;;;;9.73;3.15;;;;;;;;;;4989244;28;20030;-41
2022/11/23 12:01:31;;;;;;;13.35;3.13;;;;;;;;;;4981361;28;20027;-38
2022/11/23 12:04:01;;;;;;;7.80;2.67;;;;;;;;;;4987865;28;20367;-38
2022/11/23 12:06:35;;;;;;;9.95;2.42;;;;;;;;;;4991491;28;20037;-38
2022/11/23 12:09:13;;;;;;;7.53;2.70;;;;;;;;;;4991782;28;20476;-38
2022/11/23 12:11:39;;;;;;;7.35;2.40;;;;;;;;;;4991863;28;20389;-38
2022/11/23 12:14:06;;;;;;;8.38;2.13;;;;;;;;;;4991841;28;20026;-37
2022/11/23 12:16:47;;;;;;;6.65;2.70;;;;;;;;;;4989742;28;20470;-37
2022/11/23 12:19:19;;;;;;;7.72;2.20;;;;;;;;;;4989768;28;20026;-38
2022/11/23 12:21:44;;;;;;;;;;;;;;;;;;4986376;28;20028;-37
2022/11/23 12:24:33;;;;;;;4.05;2.35;;;;;;;;;;4989981;28;19976;-38
2022/11/23 12:27:08;;;;;;;4.57;1.80;;;;;;;;;;4966776;28;20093;-38
2022/11/23 12:29:53;;;;;;;6.63;2.08;;;;;;;;;;4992478;28;20038;-39
2022/11/23 12:32:24;;;;;;;9.73;2.42;;;;;;;;;;4983980;28;20038;-38
2022/11/23 12:35:10;;;;;;;8.10;1.85;;;;;;;;;;4992215;28;20039;-41
2022/11/23 12:37:44;;;;;;;7.93;2.00;;;;;;;;;;4992272;28;20053;-38
2022/11/23 12:40:28;;;;;;;7.60;2.15;;;;;;;;;;4988598;28;20022;-39
2022/11/23 12:43:02;;;;;;;3.20;1.60;;;;;;;;;;4988064;28;20026;-42
2022/11/23 12:45:37;;;;;;;5.85;2.50;;;;;;;;;;4989061;28;20031;-38
2022/11/23 12:48:25;;;;;;;5.07;2.00;;;;;;;;;;4983323;28;20030;-38
2022/11/23 12:50:57;;;;;;;4.35;1.50;;;;;;;;;;4989485;28;20034;-42
2022/11/23 12:53:23;;;;;;;;;;;;;;;;;;4992625;28;20018;-38
2022/11/23 12:55:54;;;;;;;5.32;1.42;;;;;;;;;;4988396;28;19910;-37
2022/11/23 12:58:25;;;;;;;3.95;1.42;;;;;;;;;;4991151;28;20027;-38
2022/11/23 13:00:55;;;;;;;4.07;1.67;;;;;;;;;;4984618;28;20034;-42
2022/11/23 13:03:36;;;;;;;4.93;1.20;;;;;;;;;;4984875;28;20049;-38
2022/11/23 13:06:13;;;;;;;2.83;1.10;;;;;;;;;;4986374;28;20114;-38
2022/11/23 13:09:03;;;;;;;3.78;1.13;;;;;;;;;;4991423;28;20606;-38
2022/11/23 13:11:31;;;;;;;2.47;1.33;;;;;;;;;;4953555;28;20104;-38
2022/11/23 13:14:00;;;;;;;2.45;1.40;;;;;;;;;;4991031;28;20157;-38
2022/11/23 13:16:29;;;;;;;2.55;1.10;;;;;;;;;;4989336;28;20038;-39
2022/11/23 13:19:01;;;;;;;4.93;2.25;;;;;;;;;;4987087;28;20396;-38
2022/11/23 13:21:38;;;;;;;5.72;1.70;;;;;;;;;;4991556;28;20037;-38
2022/11/23 13:24:04;;;;;;;2.00;1.20;;;;;;;;;;4989684;28;20105;-38
2022/11/23 13:26:30;;;;;;;2.70;1.25;;;;;;;;;;4990979;28;20018;-40
2022/11/23 13:28:58;;;;;;;4.30;1.80;;;;;;;;;;4989961;28;20112;-37
2022/11/23 13:31:29;;;;;;;3.22;1.15;;;;;;;;;;4983460;28;20031;-38
2022/11/23 13:33:57;;;;;;;2.45;1.40;;;;;;;;;;4988594;28;20022;-40
2022/11/23 13:36:29;;;;;;;4.50;1.38;;;;;;;;;;4990626;28;20029;-38
2022/11/23 13:38:55;;;;;;;2.35;1.00;;;;;;;;;;4989755;28;20378;-40
2022/11/23 13:41:33;;;;;;;5.72;1.85;;;;;;;;;;4986580;28;20022;-38
2022/11/23 13:44:11;;;;;;;5.93;1.42;;;;;;;;;;4985573;28;20034;-38
2022/11/23 13:46:38;;;;;;;3.35;1.38;;;;;;;;;;4989731;28;20030;-38
2022/11/23 13:49:24;;;;;;;3.08;1.63;;;;;;;;;;4990323;28;20483;-38
2022/11/23 13:52:03;;;;;;;3.38;1.13;;;;;;;;;;4987017;28;20468;-38
2022/11/23 13:54:29;;;;;;;2.55;1.20;;;;;;;;;;4987518;28;20599;-37
2022/11/23 13:57:01;;;;;;;1.92;1.10;;;;;;;;;;4989270;28;20066;-38
2022/11/23 13:59:31;;;;;;;3.83;1.25;;;;;;;;;;4987298;28;20421;-38
2022/11/23 14:01:58;;;;;;;1.40;0.88;;;;;;;;;;4987708;28;20027;-38
2022/11/23 14:04:25;;;;;;;1.83;1.00;;;;;;;;;;4990947;28;20173;-37
2022/11/23 14:06:56;;;;;;;2.05;0.75;;;;;;;;;;4987678;28;20094;-41
2022/11/23 14:09:32;;;;;;;2.83;0.98;;;;;;;;;;4991303;28;20084;-38
2022/11/23 14:12:01;;;;;;;1.42;0.80;;;;;;;;;;4987047;28;20054;-40
2022/11/23 14:14:34;;;;;;;1.77;0.90;;;;;;;;;;4991036;28;20491;-38
2022/11/23 14:17:00;;;;;;;2.40;0.95;;;;;;;;;;4988770;28;20098;-38
2022/11/23 14:19:45;;;;;;;1.92;0.85;;;;;;;;;;4988860;28;20117;-37
2022/11/23 14:22:19;;;;;;;4.40;1.15;;;;;;;;;;4989848;28;20041;-38
2022/11/23 14:25:04;;;;;;;2.47;1.17;;;;;;;;;;4991228;28;20026;-38
2022/11/23 14:27:42;;;;;;;1.77;0.80;;;;;;;;;;4986710;28;20110;-37
2022/11/23 14:30:29;;;;;;;3.53;1.20;;;;;;;;;;4991512;28;20418;-38
2022/11/23 14:33:02;;;;;;;1.75;0.70;;;;;;;;;;4988944;28;20038;-38
2022/11/23 14:35:33;;;;;;;1.58;0.90;;;;;;;;;;4994198;28;20548;-37
2022/11/23 14:38:17;;;;;;;1.77;0.88;;;;;;;;;;4993844;28;20380;-40
2022/11/23 14:41:02;;;;;;;1.55;0.85;;;;;;;;;;4991970;28;20049;-37
2022/11/23 14:43:28;;;;;;;3.03;0.65;;;;;;;;;;4991729;28;20019;-39
2022/11/23 14:46:00;;;;;;;2.05;0.90;;;;;;;;;;4988551;28;20041;-42
2022/11/23 14:48:26;;;;;;;;;;;;;;;;;;4987691;28;20041;-38
2022/11/23 14:50:56;;;;;;;2.10;1.33;;;;;;;;;;4990184;28;19996;-42
2022/11/23 14:53:24;;;;;;;1.92;1.00;;;;;;;;;;4993867;28;20471;-38
2022/11/23 14:55:50;;;;;;;1.55;0.80;;;;;;;;;;4993967;28;20026;-39
2022/11/23 14:58:16;;;;;;;1.60;1.00;;;;;;;;;;4991292;28;20039;-38
2022/11/23 15:00:43;;;;;;;1.98;1.00;;;;;;;;;;4993866;28;20030;-38
2022/11/23 15:03:14;;;;;;;1.15;0.90;;;;;;;;;;4989558;28;20050;-38
2022/11/23 15:05:42;;;;;;;3.53;0.82;;;;;;;;;;4993272;28;20091;-38
2022/11/23 15:08:21;;;;;;;2.97;0.88;;;;;;;;;;4991331;28;20565;-38
2022/11/23 15:10:51;;;;;;;2.28;0.90;;;;;;;;;;4991744;28;20057;-37
2022/11/23 15:13:22;;;;;;;1.83;0.68;;;;;;;;;;4990434;28;20030;-38
2022/11/23 15:15:52;;;;;;;2.15;1.00;;;;;;;;;;4979997;28;20026;-38
2022/11/23 15:18:36;;;;;;;3.35;1.15;;;;;;;;;;4993450;28;20034;-38
2022/11/23 15:21:04;;;;;;;2.70;0.70;;;;;;;;;;4991927;28;20034;-38